Time;durP1;ratioP1;P1;durP2;ratioP2;P2;SDS_P1;SDS_P2;PMS_P1;PMS_P2;Temp;Humidity;BMP_temperature;BMP_pressure;BME280_temperature;BME280_humidity;BME280_pressure;Samples;Min_cycle;Max_cycle;Signal;HPM_P1;HPM_P2
2021/08/08 00:00:34;;;;;;;10.15;5.90;;;15.70;99.90;;;;;;4952178;29;20026;-88
2021/08/08 00:02:59;;;;;;;18.33;7.80;;;15.70;99.90;;;;;;4952629;28;20098;-87
2021/08/08 00:05:25;;;;;;;10.52;8.07;;;15.60;99.90;;;;;;4954059;28;20047;-88
2021/08/08 00:07:51;;;;;;;8.73;7.82;;;15.70;99.90;;;;;;4953949;29;20451;-87
2021/08/08 00:10:16;;;;;;;8.38;7.28;;;15.70;99.90;;;;;;4952221;29;20023;-87
2021/08/08 00:12:42;;;;;;;8.50;7.40;;;15.70;99.90;;;;;;4952242;29;20039;-88
2021/08/08 00:15:10;;;;;;;7.82;6.72;;;15.70;99.90;;;;;;4952057;29;20079;-87
2021/08/08 00:17:36;;;;;;;8.88;8.00;;;15.70;99.90;;;;;;4937283;29;20035;-88
2021/08/08 00:20:04;;;;;;;8.43;7.53;;;15.70;99.90;;;;;;4951529;29;20023;-87
2021/08/08 00:22:30;;;;;;;8.63;7.03;;;15.60;99.90;;;;;;4951754;28;20034;-88
2021/08/08 00:24:56;;;;;;;7.70;5.68;;;15.60;99.90;;;;;;4952013;29;20027;-87
2021/08/08 00:27:21;;;;;;;6.80;5.95;;;15.60;99.90;;;;;;4952003;29;20112;-88
2021/08/08 00:29:47;;;;;;;6.30;5.35;;;15.60;99.90;;;;;;4952021;29;20055;-87
2021/08/08 00:32:13;;;;;;;9.77;6.57;;;15.60;99.90;;;;;;4954355;29;20106;-87
2021/08/08 00:34:38;;;;;;;8.95;6.28;;;15.60;99.90;;;;;;4953934;29;20146;-88
2021/08/08 00:37:04;;;;;;;9.50;6.70;;;15.60;99.90;;;;;;4951284;29;20027;-87
2021/08/08 00:39:31;;;;;;;7.60;6.35;;;15.50;99.90;;;;;;4951341;29;20337;-88
2021/08/08 00:41:57;;;;;;;8.18;7.07;;;15.50;99.90;;;;;;4952059;28;20016;-87
2021/08/08 00:44:23;;;;;;;7.15;6.38;;;15.50;99.90;;;;;;4953445;28;20095;-87
2021/08/08 00:46:49;;;;;;;7.15;6.45;;;15.60;99.90;;;;;;4949356;29;20035;-87
2021/08/08 00:49:15;;;;;;;7.93;6.72;;;15.60;99.90;;;;;;4950157;29;20031;-87
2021/08/08 00:51:41;;;;;;;7.88;7.07;;;15.70;99.90;;;;;;4952833;29;20074;-87
2021/08/08 00:54:08;;;;;;;11.68;6.70;;;15.60;99.90;;;;;;4951178;29;20039;-87
2021/08/08 00:56:35;;;;;;;7.97;6.60;;;15.60;99.90;;;;;;4936481;29;20494;-88
2021/08/08 00:59:00;;;;;;;7.93;6.95;;;15.70;99.90;;;;;;4954713;29;20092;-87
2021/08/08 01:01:28;;;;;;;12.35;7.72;;;15.70;99.90;;;;;;4952733;29;20027;-87
2021/08/08 01:03:57;;;;;;;8.63;6.72;;;15.80;99.90;;;;;;4952652;28;20019;-88
2021/08/08 01:06:44;;;;;;;9.13;7.20;;;15.90;99.90;;;;;;4951275;28;20054;-88
2021/08/08 01:09:13;;;;;;;9.88;6.50;;;15.90;99.90;;;;;;4951237;28;20019;-87
2021/08/08 01:11:39;;;;;;;9.20;6.80;;;15.90;99.90;;;;;;4952596;29;20039;-87
2021/08/08 01:14:07;;;;;;;9.07;6.45;;;16.00;99.90;;;;;;4954150;28;20365;-88
2021/08/08 01:16:35;;;;;;;7.57;6.72;;;16.10;99.90;;;;;;4952988;29;20031;-87
2021/08/08 01:19:03;;;;;;;10.93;7.50;;;16.20;99.90;;;;;;4952827;28;20121;-87
2021/08/08 01:21:32;;;;;;;7.63;6.93;;;16.20;99.90;;;;;;4951055;28;20399;-87
2021/08/08 01:23:58;;;;;;;8.43;6.45;;;16.30;99.90;;;;;;4951017;29;20019;-87
2021/08/08 01:26:26;;;;;;;6.78;6.07;;;16.30;99.90;;;;;;4952461;28;20045;-87
2021/08/08 01:28:53;;;;;;;7.75;6.38;;;16.40;99.90;;;;;;4952871;29;20154;-87
2021/08/08 01:31:20;;;;;;;8.00;6.15;;;16.40;99.90;;;;;;4950752;29;20023;-87
2021/08/08 01:33:45;;;;;;;7.95;6.13;;;16.40;99.90;;;;;;4950352;29;20039;-87
2021/08/08 01:36:11;;;;;;;8.65;6.13;;;16.30;99.90;;;;;;4951820;29;20037;-87
2021/08/08 01:38:42;;;;;;;8.05;6.72;;;16.30;99.90;;;;;;4949841;28;20067;-87
2021/08/08 01:41:10;;;;;;;6.78;6.07;;;16.30;99.90;;;;;;4953910;29;20019;-87
2021/08/08 01:43:41;;;;;;;7.38;6.28;;;16.30;99.90;;;;;;4949521;28;20133;-88
2021/08/08 01:46:09;;;;;;;8.88;6.50;;;16.30;99.90;;;;;;4947813;29;20030;-87
2021/08/08 01:48:45;;;;;;;7.90;6.70;;;16.30;99.90;;;;;;4950580;29;20072;-87
2021/08/08 01:51:12;;;;;;;7.57;6.50;;;16.30;99.90;;;;;;4951633;29;20020;-87
2021/08/08 01:53:39;;;;;;;8.50;6.57;;;16.30;99.90;;;;;;4950227;29;20090;-88
2021/08/08 01:56:05;;;;;;;8.73;6.30;;;16.40;99.90;;;;;;4954017;28;20051;-88
2021/08/08 01:58:31;;;;;;;8.70;6.40;;;16.40;99.90;;;;;;4950302;29;20114;-87
2021/08/08 02:00:57;;;;;;;19.08;6.30;;;16.40;99.90;;;;;;4950549;29;20018;-86
2021/08/08 02:03:36;;;;;;;6.13;5.57;;;16.50;99.90;;;;;;4950210;28;20037;-87
2021/08/08 02:06:03;;;;;;;9.95;6.10;;;16.50;99.90;;;;;;4951540;29;20487;-86
2021/08/08 02:08:29;;;;;;;9.00;6.00;;;16.50;99.90;;;;;;4951311;28;20408;-88
2021/08/08 02:10:55;;;;;;;8.32;5.93;;;16.50;99.90;;;;;;4952599;29;20023;-88
2021/08/08 02:13:20;;;;;;;7.20;5.47;;;16.60;99.90;;;;;;4950039;29;20079;-87
2021/08/08 02:15:46;;;;;;;8.98;5.47;;;16.60;99.90;;;;;;4952134;28;20508;-87
2021/08/08 02:18:12;;;;;;;8.90;6.45;;;16.70;99.90;;;;;;4950487;29;20082;-87
2021/08/08 02:20:37;;;;;;;7.70;6.03;;;16.70;99.90;;;;;;4950104;29;20059;-86
2021/08/08 02:23:04;;;;;;;6.30;5.45;;;16.80;99.90;;;;;;4953319;28;20028;-88
2021/08/08 02:25:30;;;;;;;8.68;5.78;;;16.90;99.90;;;;;;4949944;29;20605;-86
2021/08/08 02:27:55;;;;;;;6.47;4.93;;;17.00;99.90;;;;;;4949823;29;20143;-88
2021/08/08 02:30:21;;;;;;;6.28;5.20;;;17.10;99.90;;;;;;4949491;28;20041;-87
2021/08/08 02:32:46;;;;;;;8.80;5.50;;;17.10;99.90;;;;;;4949897;28;20492;-87
2021/08/08 02:35:12;;;;;;;6.90;4.50;;;17.20;99.90;;;;;;4951805;28;20038;-86
2021/08/08 02:37:38;;;;;;;9.60;5.57;;;17.30;99.90;;;;;;4951926;29;20099;-88
2021/08/08 02:40:05;;;;;;;6.97;5.18;;;17.40;99.90;;;;;;4950161;28;20023;-88
2021/08/08 02:42:32;;;;;;;6.93;5.18;;;17.30;99.90;;;;;;4950323;29;20090;-87
2021/08/08 02:44:58;;;;;;;8.70;5.60;;;17.30;99.90;;;;;;4949832;28;20067;-87
2021/08/08 02:47:24;;;;;;;7.28;5.50;;;17.20;99.90;;;;;;4951610;28;20023;-87
2021/08/08 02:49:49;;;;;;;5.32;4.82;;;17.20;99.90;;;;;;4949812;28;20050;-86
2021/08/08 02:52:15;;;;;;;10.05;5.95;;;17.10;99.90;;;;;;4953524;29;20016;-87
2021/08/08 02:54:40;;;;;;;9.70;5.70;;;17.10;99.90;;;;;;4953489;28;20031;-88
2021/08/08 02:57:06;;;;;;;7.35;5.32;;;17.10;99.90;;;;;;4953813;29;20494;-87
2021/08/08 02:59:33;;;;;;;5.82;4.55;;;17.00;99.90;;;;;;4954339;28;20036;-87
2021/08/08 03:01:59;;;;;;;10.00;4.97;;;17.00;99.90;;;;;;4956136;29;20035;-87
2021/08/08 03:04:25;;;;;;;7.85;5.03;;;17.10;99.90;;;;;;4953193;28;20035;-87
2021/08/08 03:06:51;;;;;;;5.38;4.70;;;17.10;99.90;;;;;;4953351;28;20023;-86
2021/08/08 03:09:16;;;;;;;7.72;5.07;;;17.20;99.90;;;;;;4954944;29;20051;-86
2021/08/08 03:11:45;;;;;;;6.50;5.43;;;17.20;99.90;;;;;;4953571;29;20380;-87
2021/08/08 03:14:16;;;;;;;6.22;4.95;;;17.10;99.90;;;;;;4955837;28;20611;-87
2021/08/08 03:16:42;;;;;;;8.48;5.07;;;17.20;99.90;;;;;;4955777;29;20023;-88
2021/08/08 03:19:09;;;;;;;7.70;4.90;;;17.20;99.90;;;;;;4952680;28;20027;-87
2021/08/08 03:21:35;;;;;;;5.50;4.63;;;17.10;99.90;;;;;;4953055;29;20028;-88
2021/08/08 03:24:01;;;;;;;6.85;4.70;;;17.20;99.90;;;;;;4953251;28;20038;-87
2021/08/08 03:26:28;;;;;;;6.90;4.88;;;17.20;99.90;;;;;;4954732;28;20031;-87
2021/08/08 03:28:53;;;;;;;5.15;4.57;;;17.20;99.90;;;;;;4955267;29;20163;-87
2021/08/08 03:31:19;;;;;;;9.07;4.43;;;17.20;99.90;;;;;;4952941;29;20016;-87
2021/08/08 03:33:45;;;;;;;6.82;4.55;;;17.10;99.90;;;;;;4951888;29;20113;-87
2021/08/08 03:36:11;;;;;;;7.22;4.43;;;17.10;99.90;;;;;;4954320;29;20028;-86
2021/08/08 03:38:38;;;;;;;5.55;4.28;;;17.10;99.90;;;;;;4953085;29;20035;-86
2021/08/08 03:41:03;;;;;;;8.60;5.13;;;17.10;99.90;;;;;;4952367;29;20110;-87
2021/08/08 03:43:29;;;;;;;4.82;3.85;;;17.20;99.90;;;;;;4952232;28;20138;-87
2021/08/08 03:45:55;;;;;;;5.40;4.25;;;17.30;99.90;;;;;;4948288;28;20130;-87
2021/08/08 03:48:20;;;;;;;5.18;4.10;;;17.40;99.90;;;;;;4952152;29;20039;-87
2021/08/08 03:50:46;;;;;;;6.32;4.10;;;17.40;99.90;;;;;;4952498;29;20066;-88
2021/08/08 03:53:12;;;;;;;7.53;4.63;;;17.50;99.90;;;;;;4955096;28;20082;-87
2021/08/08 03:55:37;;;;;;;7.70;4.57;;;17.70;99.90;;;;;;4953642;29;20051;-86
2021/08/08 03:58:03;;;;;;;4.63;3.90;;;17.80;99.90;;;;;;4954194;29;20038;-88
2021/08/08 04:00:29;;;;;;;6.70;4.25;;;17.80;99.90;;;;;;4952283;28;20085;-87
2021/08/08 04:02:55;;;;;;;6.70;4.22;;;17.90;99.90;;;;;;4952390;29;20032;-87
2021/08/08 04:05:20;;;;;;;6.13;3.63;;;18.00;99.90;;;;;;4954768;28;20035;-88
2021/08/08 04:07:46;;;;;;;6.75;4.05;;;18.00;99.90;;;;;;4947864;29;20352;-88
2021/08/08 04:10:12;;;;;;;7.20;3.97;;;18.10;99.90;;;;;;4952181;29;20376;-88
2021/08/08 04:12:37;;;;;;;7.03;3.42;;;18.10;99.90;;;;;;4952191;28;20023;-88
2021/08/08 04:15:04;;;;;;;5.95;4.10;;;18.10;99.90;;;;;;4953496;29;20031;-88
2021/08/08 04:17:30;;;;;;;10.23;4.30;;;18.20;99.90;;;;;;4953232;28;20027;-88
2021/08/08 04:19:56;;;;;;;5.07;3.20;;;18.20;99.90;;;;;;4954778;29;20042;-88
2021/08/08 04:22:22;;;;;;;8.85;4.10;;;18.20;99.90;;;;;;4951651;28;20039;-88
2021/08/08 04:24:48;;;;;;;5.82;4.25;;;18.20;99.90;;;;;;4952178;28;20031;-88
2021/08/08 04:27:13;;;;;;;5.60;4.25;;;18.20;99.90;;;;;;4953253;29;20039;-88
2021/08/08 04:29:40;;;;;;;6.35;4.32;;;18.10;99.90;;;;;;4952418;29;20082;-88
2021/08/08 04:32:07;;;;;;;8.68;4.75;;;18.10;99.90;;;;;;4954650;28;20420;-88
2021/08/08 04:34:32;;;;;;;8.20;4.70;;;18.10;99.90;;;;;;4952131;28;20168;-90
2021/08/08 04:36:59;;;;;;;6.32;4.78;;;18.10;99.90;;;;;;4952090;29;20029;-87
2021/08/08 04:39:25;;;;;;;8.98;4.75;;;18.10;99.90;;;;;;4951909;29;20122;-89
2021/08/08 04:41:52;;;;;;;10.00;5.10;;;18.10;99.90;;;;;;4952183;29;20483;-87
2021/08/08 04:44:19;;;;;;;9.77;5.00;;;18.00;99.90;;;;;;4954128;28;20023;-88
2021/08/08 04:46:45;;;;;;;8.45;4.75;;;18.00;99.90;;;;;;4952953;29;20066;-87
2021/08/08 04:49:10;;;;;;;6.53;3.78;;;18.00;99.90;;;;;;4951600;29;20050;-87
2021/08/08 04:51:36;;;;;;;6.45;4.57;;;18.10;99.90;;;;;;4957583;28;20501;-87
2021/08/08 04:54:02;;;;;;;6.25;4.60;;;18.10;99.90;;;;;;4953817;28;20039;-87
2021/08/08 04:56:28;;;;;;;7.50;5.95;;;18.10;99.90;;;;;;4952555;28;20035;-88
2021/08/08 04:58:53;;;;;;;10.15;4.43;;;18.20;99.90;;;;;;4953214;29;20055;-88
2021/08/08 05:01:19;;;;;;;8.77;4.85;;;18.20;99.90;;;;;;4951005;28;20122;-88
2021/08/08 05:03:45;;;;;;;6.70;5.18;;;18.20;99.90;;;;;;4951478;29;20031;-88
2021/08/08 05:06:10;;;;;;;7.22;4.30;;;18.20;99.90;;;;;;4951324;29;20027;-89
2021/08/08 05:08:36;;;;;;;7.32;4.90;;;18.10;99.90;;;;;;4951541;29;20023;-88
2021/08/08 05:11:02;;;;;;;7.45;4.43;;;18.10;99.90;;;;;;4954314;29;20035;-88
2021/08/08 05:13:28;;;;;;;7.18;5.47;;;18.10;99.90;;;;;;4950934;28;20039;-88
2021/08/08 05:15:54;;;;;;;6.13;5.05;;;18.00;99.90;;;;;;4951170;29;20023;-88
2021/08/08 05:18:20;;;;;;;8.57;4.30;;;17.90;99.90;;;;;;4951236;28;20059;-88
2021/08/08 05:20:45;;;;;;;5.90;5.00;;;18.00;99.90;;;;;;4951183;29;20114;-89
2021/08/08 05:23:11;;;;;;;5.75;4.90;;;18.00;99.90;;;;;;4952482;29;20493;-88
2021/08/08 05:25:37;;;;;;;6.47;5.30;;;18.00;99.90;;;;;;4951921;29;20586;-89
2021/08/08 05:28:02;;;;;;;6.57;4.82;;;17.90;99.90;;;;;;4950323;29;20027;-89
2021/08/08 05:30:28;;;;;;;6.03;4.78;;;17.90;99.90;;;;;;4950873;29;20483;-88
2021/08/08 05:32:54;;;;;;;5.93;5.13;;;17.90;99.90;;;;;;4953713;28;20082;-89
2021/08/08 05:35:20;;;;;;;8.07;4.95;;;17.90;99.90;;;;;;4953027;28;20035;-88
2021/08/08 05:37:46;;;;;;;6.72;4.85;;;17.90;99.90;;;;;;4948021;29;20015;-87
2021/08/08 05:40:12;;;;;;;5.15;4.55;;;17.90;99.90;;;;;;4952307;29;20438;-88
2021/08/08 05:42:37;;;;;;;6.20;4.45;;;17.90;99.90;;;;;;4953004;28;20109;-88
2021/08/08 05:45:04;;;;;;;8.75;5.10;;;17.90;99.90;;;;;;4952152;29;20127;-88
2021/08/08 05:47:30;;;;;;;5.30;4.32;;;17.90;99.90;;;;;;4950292;28;20043;-88
2021/08/08 05:49:56;;;;;;;6.82;4.63;;;17.90;99.90;;;;;;4952340;29;20031;-88
2021/08/08 05:52:22;;;;;;;4.95;4.45;;;17.90;99.90;;;;;;4951848;29;20027;-87
2021/08/08 05:54:48;;;;;;;6.65;4.40;;;17.90;99.90;;;;;;4952038;28;20046;-88
2021/08/08 05:57:13;;;;;;;8.80;4.85;;;18.00;99.90;;;;;;4950452;29;20540;-88
2021/08/08 05:59:39;;;;;;;6.38;4.97;;;18.00;99.90;;;;;;4951049;29;20042;-87
2021/08/08 06:02:05;;;;;;;8.38;5.18;;;18.10;99.90;;;;;;4954232;28;20444;-88
2021/08/08 06:04:30;;;;;;;7.55;4.93;;;18.20;99.90;;;;;;4949505;28;20039;-88
2021/08/08 06:06:57;;;;;;;7.10;4.78;;;18.30;99.90;;;;;;4947878;29;20047;-88
2021/08/08 06:09:22;;;;;;;6.72;4.45;;;18.40;99.90;;;;;;4951637;29;20151;-88
2021/08/08 06:11:48;;;;;;;7.55;5.10;;;18.50;99.90;;;;;;4952395;29;20036;-89
2021/08/08 06:14:15;;;;;;;9.63;4.85;;;18.50;99.90;;;;;;4953406;28;20047;-88
2021/08/08 06:16:41;;;;;;;6.68;5.05;;;18.60;99.90;;;;;;4950481;29;20066;-87
2021/08/08 06:19:06;;;;;;;5.05;4.55;;;18.60;99.90;;;;;;4951550;29;20061;-89
2021/08/08 06:21:32;;;;;;;9.35;4.82;;;18.70;99.90;;;;;;4951405;29;20111;-88
2021/08/08 06:23:58;;;;;;;4.90;4.30;;;18.80;99.90;;;;;;4950074;29;20085;-87
2021/08/08 06:26:23;;;;;;;6.22;4.60;;;18.80;99.90;;;;;;4952140;28;20027;-89
2021/08/08 06:28:49;;;;;;;4.28;3.72;;;18.80;99.90;;;;;;4951682;29;20186;-88
2021/08/08 06:31:15;;;;;;;6.60;4.72;;;18.90;99.90;;;;;;4950055;29;20357;-88
2021/08/08 06:33:40;;;;;;;11.70;4.50;;;19.10;99.90;;;;;;4949824;28;20491;-87
2021/08/08 06:36:06;;;;;;;7.07;4.10;;;19.20;99.90;;;;;;4951166;28;20383;-87
2021/08/08 06:38:33;;;;;;;6.60;4.88;;;19.20;99.90;;;;;;4950945;28;20036;-86
2021/08/08 06:40:59;;;;;;;6.22;4.15;;;19.30;99.90;;;;;;4952791;29;20020;-89
2021/08/08 06:43:25;;;;;;;4.95;3.70;;;19.40;99.90;;;;;;4951234;29;20075;-89
2021/08/08 06:45:50;;;;;;;7.07;4.05;;;19.50;99.90;;;;;;4949935;29;20038;-87
2021/08/08 06:48:16;;;;;;;6.78;4.07;;;19.50;99.90;;;;;;4950103;28;20110;-88
2021/08/08 06:50:42;;;;;;;11.10;4.13;;;19.60;99.90;;;;;;4950262;29;20897;-88
2021/08/08 06:53:07;;;;;;;5.93;3.92;;;19.70;99.90;;;;;;4952821;28;20447;-88
2021/08/08 06:55:33;;;;;;;6.82;3.80;;;19.70;99.90;;;;;;4950250;28;20130;-88
2021/08/08 06:57:58;;;;;;;6.43;3.70;;;19.80;99.90;;;;;;4949806;29;20033;-87
2021/08/08 07:00:24;;;;;;;6.07;3.67;;;19.90;99.90;;;;;;4951179;29;20110;-88
2021/08/08 07:02:51;;;;;;;4.72;3.58;;;19.90;99.90;;;;;;4950942;29;20050;-87
2021/08/08 07:05:16;;;;;;;5.28;3.80;;;20.00;99.90;;;;;;4951865;28;20038;-88
2021/08/08 07:07:42;;;;;;;6.10;3.60;;;20.10;99.90;;;;;;4950504;29;20042;-88
2021/08/08 07:10:08;;;;;;;3.88;3.47;;;20.30;99.90;;;;;;4949377;29;20549;-88
2021/08/08 07:12:34;;;;;;;6.30;3.88;;;20.50;99.90;;;;;;4951199;28;20194;-88
2021/08/08 07:14:59;;;;;;;4.38;3.50;;;20.60;99.90;;;;;;4950044;28;20570;-88
2021/08/08 07:17:25;;;;;;;6.30;3.03;;;20.70;99.90;;;;;;4941676;28;20027;-88
2021/08/08 07:19:51;;;;;;;5.10;3.70;;;20.80;99.90;;;;;;4955344;28;20033;-89
2021/08/08 07:22:16;;;;;;;3.88;3.47;;;21.00;99.90;;;;;;4953767;28;20533;-88
2021/08/08 07:24:44;;;;;;;4.95;3.38;;;21.00;99.90;;;;;;4950307;28;20082;-89
2021/08/08 07:27:11;;;;;;;6.07;3.53;;;21.20;99.90;;;;;;4960609;28;20031;-88
2021/08/08 07:29:36;;;;;;;4.07;3.20;;;21.40;99.90;;;;;;4936876;28;20026;-88
2021/08/08 07:32:02;;;;;;;5.57;3.38;;;21.50;99.90;;;;;;4960628;28;20023;-88
2021/08/08 07:34:28;;;;;;;6.47;3.33;;;21.70;99.90;;;;;;4953964;28;20135;-89
2021/08/08 07:36:56;;;;;;;3.78;3.25;;;21.90;99.90;;;;;;4953835;28;20114;-89
2021/08/08 07:39:21;;;;;;;3.42;3.08;;;21.80;99.90;;;;;;4962862;28;20035;-91
2021/08/08 07:41:47;;;;;;;3.67;3.17;;;21.70;99.90;;;;;;4951945;29;20084;-88
2021/08/08 07:44:12;;;;;;;3.88;3.10;;;21.40;99.90;;;;;;4963870;28;20015;-89
2021/08/08 07:46:38;;;;;;;7.40;3.70;;;21.30;99.90;;;;;;4954383;28;20059;-86
2021/08/08 07:49:04;;;;;;;4.90;3.60;;;21.10;99.90;;;;;;4951552;28;20023;-87
2021/08/08 07:51:29;;;;;;;5.63;4.03;;;20.90;99.90;;;;;;4957888;28;20039;-89
2021/08/08 07:53:55;;;;;;;7.85;4.63;;;20.70;99.90;;;;;;4960792;28;20031;-88
2021/08/08 07:56:21;;;;;;;6.32;4.10;;;20.60;99.90;;;;;;4963779;28;20494;-88
2021/08/08 07:58:46;;;;;;;5.07;4.63;;;20.50;99.90;;;;;;4956654;28;20090;-88
2021/08/08 08:01:12;;;;;;;8.23;5.43;;;20.40;99.90;;;;;;4954158;28;20402;-88
2021/08/08 08:03:38;;;;;;;6.43;5.40;;;20.30;99.90;;;;;;4954993;28;20025;-88
2021/08/08 08:06:03;;;;;;;7.95;5.50;;;20.20;99.90;;;;;;4952819;28;20444;-90
2021/08/08 08:08:29;;;;;;;10.48;6.03;;;20.20;99.90;;;;;;4961038;28;20035;-87
2021/08/08 08:10:55;;;;;;;8.82;6.38;;;20.10;99.90;;;;;;4966997;28;20032;-88
2021/08/08 08:13:21;;;;;;;8.02;5.80;;;20.00;99.90;;;;;;4952948;28;20047;-88
2021/08/08 08:15:47;;;;;;;8.50;6.10;;;20.00;99.90;;;;;;4960794;28;20083;-87
2021/08/08 08:18:13;;;;;;;10.73;6.53;;;19.90;99.90;;;;;;4949182;28;20028;-86
2021/08/08 08:20:40;;;;;;;9.55;6.70;;;19.80;99.90;;;;;;4952280;28;20387;-87
2021/08/08 08:23:05;;;;;;;7.72;6.40;;;19.80;99.90;;;;;;4955494;28;20035;-86
2021/08/08 08:25:31;;;;;;;7.22;6.53;;;19.80;99.90;;;;;;4952513;29;20114;-88
2021/08/08 08:27:57;;;;;;;8.07;7.25;;;19.70;99.90;;;;;;4953915;29;20031;-88
2021/08/08 08:30:22;;;;;;;8.63;7.70;;;19.70;99.90;;;;;;4952348;28;20034;-87
2021/08/08 08:32:48;;;;;;;8.63;7.75;;;19.60;99.90;;;;;;4963143;28;20074;-90
2021/08/08 08:35:14;;;;;;;11.88;8.63;;;19.50;99.90;;;;;;4954452;28;20479;-88
2021/08/08 08:37:40;;;;;;;10.38;8.30;;;19.50;99.90;;;;;;4968542;28;20027;-87
2021/08/08 08:40:07;;;;;;;8.52;7.80;;;19.50;99.90;;;;;;4953515;29;20491;-88
2021/08/08 08:42:35;;;;;;;9.90;7.85;;;19.60;99.90;;;;;;4953578;28;20019;-88
2021/08/08 08:45:01;;;;;;;9.77;7.95;;;19.70;99.90;;;;;;4949203;29;20031;-87
2021/08/08 08:47:30;;;;;;;8.38;7.57;;;19.80;99.90;;;;;;4951169;28;20027;-88
2021/08/08 08:49:58;;;;;;;9.65;7.25;;;19.80;99.90;;;;;;4954268;29;20038;-87
2021/08/08 08:52:27;;;;;;;7.63;6.82;;;19.80;99.90;;;;;;4952825;29;20027;-88
2021/08/08 08:54:54;;;;;;;8.77;6.47;;;19.70;99.90;;;;;;4953445;29;20023;-88
2021/08/08 08:57:21;;;;;;;6.38;5.53;;;19.50;99.90;;;;;;4953428;28;20039;-88
2021/08/08 08:59:48;;;;;;;6.40;5.78;;;19.50;99.90;;;;;;4951691;28;20027;-88
2021/08/08 09:02:14;;;;;;;6.03;5.43;;;19.50;99.90;;;;;;4952637;29;20491;-89
2021/08/08 09:04:40;;;;;;;7.40;5.57;;;19.40;99.90;;;;;;4953644;29;20039;-89
2021/08/08 09:07:06;;;;;;;6.50;5.90;;;19.40;99.90;;;;;;4950912;29;20031;-89
2021/08/08 09:09:34;;;;;;;6.47;5.75;;;19.40;99.90;;;;;;4953324;29;20118;-88
2021/08/08 09:11:59;;;;;;;5.90;5.40;;;19.40;99.90;;;;;;4951978;29;20039;-89
2021/08/08 09:14:26;;;;;;;5.78;5.28;;;19.50;99.90;;;;;;4951413;29;20117;-88
2021/08/08 09:16:56;;;;;;;4.82;4.40;;;19.50;99.90;;;;;;4952675;29;20027;-89
2021/08/08 09:19:30;;;;;;;4.95;4.13;;;19.70;99.90;;;;;;4951234;29;20027;-89
2021/08/08 09:21:57;;;;;;;5.13;3.33;;;19.70;99.90;;;;;;4952677;29;20026;-87
2021/08/08 09:24:29;;;;;;;5.85;3.60;;;19.70;99.90;;;;;;4946809;29;20144;-88
2021/08/08 09:27:10;;;;;;;3.05;2.72;;;19.70;99.90;;;;;;4953129;28;20074;-88
2021/08/08 09:29:36;;;;;;;;;;;19.70;99.90;;;;;;4950315;29;20067;-87
2021/08/08 09:32:03;;;;;;;3.92;3.08;;;19.70;99.90;;;;;;4953870;29;19906;-89
2021/08/08 09:34:29;;;;;;;4.20;2.92;;;19.70;99.90;;;;;;4950562;28;20051;-87
2021/08/08 09:36:57;;;;;;;3.20;2.90;;;19.80;99.90;;;;;;4953986;29;20034;-89
2021/08/08 09:39:45;;;;;;;4.20;2.25;;;19.80;99.90;;;;;;4949503;29;20031;-87
2021/08/08 09:42:15;;;;;;;4.78;2.60;;;19.70;99.90;;;;;;4952414;28;20023;-88
2021/08/08 09:45:03;;;;;;;2.83;2.28;;;19.70;99.90;;;;;;4964426;28;20027;-88
2021/08/08 09:47:44;;;;;;;2.58;2.30;;;19.80;99.90;;;;;;4952437;28;20150;-88
2021/08/08 09:50:24;;;;;;;2.75;2.10;;;19.90;99.90;;;;;;4950326;29;20067;-89
2021/08/08 09:52:51;;;;;;;2.13;1.77;;;20.20;99.90;;;;;;4948299;29;20070;-87
2021/08/08 09:55:26;;;;;;;3.63;2.05;;;20.40;99.90;;;;;;4950071;28;20039;-88
2021/08/08 09:57:52;;;;;;;2.88;1.92;;;20.70;99.90;;;;;;4945053;28;20053;-89
2021/08/08 10:00:29;;;;;;;1.90;1.48;;;20.70;99.90;;;;;;4947988;29;20038;-88
2021/08/08 10:02:55;;;;;;;2.22;1.73;;;20.80;99.90;;;;;;4952302;28;20110;-89
2021/08/08 10:05:23;;;;;;;2.33;1.50;;;20.90;99.90;;;;;;4952474;28;20479;-89
2021/08/08 10:07:49;;;;;;;2.08;1.35;;;20.90;99.90;;;;;;4947736;29;20035;-89
2021/08/08 10:10:16;;;;;;;2.30;1.70;;;21.10;99.90;;;;;;4951599;29;20027;-89
2021/08/08 10:12:48;;;;;;;1.75;1.52;;;21.20;99.90;;;;;;4951660;29;20398;-88
2021/08/08 10:15:13;;;;;;;2.35;1.50;;;21.20;99.90;;;;;;4951550;28;20485;-89
2021/08/08 10:17:42;;;;;;;2.30;2.03;;;21.30;99.90;;;;;;4945253;29;20172;-89
2021/08/08 10:20:08;;;;;;;3.15;1.58;;;21.20;99.90;;;;;;4948463;29;20058;-89
2021/08/08 10:22:36;;;;;;;4.18;1.90;;;21.10;99.90;;;;;;4950967;29;20031;-89
2021/08/08 10:25:02;;;;;;;3.10;1.83;;;21.10;99.90;;;;;;4952221;28;20031;-87
2021/08/08 10:27:30;;;;;;;1.73;1.38;;;21.00;99.90;;;;;;4949921;29;20078;-88
2021/08/08 10:29:59;;;;;;;1.73;1.30;;;21.00;99.90;;;;;;4951580;29;20506;-90
2021/08/08 10:32:29;;;;;;;3.93;1.63;;;20.90;99.90;;;;;;4952408;28;20143;-88
2021/08/08 10:34:55;;;;;;;2.78;1.20;;;20.70;99.90;;;;;;4951022;29;20465;-88
2021/08/08 10:37:23;;;;;;;2.88;1.52;;;20.60;99.90;;;;;;4951670;29;20474;-89
2021/08/08 10:39:50;;;;;;;3.53;1.48;;;20.70;99.90;;;;;;4951980;28;20031;-88
2021/08/08 10:42:17;;;;;;;2.58;1.27;;;20.80;99.90;;;;;;4945808;29;20050;-87
2021/08/08 10:45:05;;;;;;;3.67;1.60;;;21.00;99.90;;;;;;4951434;28;20023;-89
2021/08/08 10:47:32;;;;;;;1.73;1.23;;;21.20;99.90;;;;;;4951183;28;20059;-91
2021/08/08 10:50:59;;;;;;;2.88;1.33;;;21.40;99.90;;;;;;4951750;29;20391;-89
2021/08/08 10:53:31;;;;;;;5.38;1.63;;;21.60;99.90;;;;;;4874447;29;20052;-89
2021/08/08 10:56:09;;;;;;;2.33;1.15;;;21.80;99.90;;;;;;4875467;29;20041;-89
2021/08/08 10:58:39;;;;;;;1.50;1.00;;;22.00;99.90;;;;;;4875123;29;20131;-89
2021/08/08 11:01:16;;;;;;;2.63;1.10;;;22.10;99.90;;;;;;4856712;29;20120;-90
2021/08/08 11:04:00;;;;;;;1.38;1.15;;;22.20;99.90;;;;;;4858097;29;20033;-90
2021/08/08 11:06:28;;;;;;;2.38;1.40;;;22.40;99.90;;;;;;4874117;29;20093;-89
2021/08/08 11:08:55;;;;;;;2.47;1.20;;;22.50;99.90;;;;;;4873142;29;20037;-90
2021/08/08 11:11:23;;;;;;;4.32;1.30;;;22.50;99.90;;;;;;4874224;29;20116;-90
2021/08/08 11:13:48;;;;;;;3.13;1.20;;;22.50;99.90;;;;;;4894364;29;20044;-90
2021/08/08 11:16:14;;;;;;;3.35;1.00;;;22.60;99.90;;;;;;4869107;29;20068;-89
2021/08/08 11:18:39;;;;;;;1.20;0.85;;;22.70;99.90;;;;;;4865133;29;20049;-90
2021/08/08 11:21:13;;;;;;;2.28;1.00;;;22.90;99.90;;;;;;4877528;29;20181;-90
2021/08/08 11:23:38;;;;;;;2.20;1.00;;;22.90;99.90;;;;;;4878612;29;20044;-89
2021/08/08 11:26:04;;;;;;;1.23;0.70;;;22.90;99.90;;;;;;4878410;29;20037;-90
2021/08/08 11:28:30;;;;;;;1.52;0.90;;;23.00;99.90;;;;;;4883373;29;20055;-89
2021/08/08 11:30:56;;;;;;;2.38;0.93;;;22.80;99.90;;;;;;4949896;29;20027;-88
2021/08/08 11:33:25;;;;;;;2.08;0.73;;;22.80;99.90;;;;;;4954313;29;20384;-90
2021/08/08 11:35:59;;;;;;;2.60;1.17;;;22.60;99.90;;;;;;4955156;29;20062;-89
2021/08/08 11:38:29;;;;;;;4.38;1.00;;;22.60;99.90;;;;;;4954933;28;20110;-90
2021/08/08 11:40:56;;;;;;;1.17;0.73;;;22.60;99.90;;;;;;4957312;29;20483;-90
2021/08/08 11:43:30;;;;;;;2.40;1.13;;;22.70;99.90;;;;;;4952156;29;20035;-88
2021/08/08 11:45:59;;;;;;;1.88;1.30;;;22.70;99.90;;;;;;4953628;28;20023;-90
2021/08/08 11:48:29;;;;;;;2.28;1.08;;;22.80;99.90;;;;;;4954235;29;20057;-90
2021/08/08 11:51:00;;;;;;;1.70;0.82;;;23.10;99.90;;;;;;4955144;29;20051;-90
2021/08/08 11:53:36;;;;;;;1.55;0.80;;;23.20;99.90;;;;;;4954763;29;20041;-88
2021/08/08 11:56:22;;;;;;;2.40;0.98;;;23.20;99.90;;;;;;4955972;29;20049;-89
2021/08/08 11:58:53;;;;;;;1.75;1.00;;;23.00;99.90;;;;;;4950862;29;20031;-90
2021/08/08 12:01:20;;;;;;;4.68;1.40;;;22.90;99.90;;;;;;4954274;29;20026;-89
2021/08/08 12:03:49;;;;;;;1.80;1.48;;;22.80;99.90;;;;;;4949501;29;20027;-90
2021/08/08 12:06:19;;;;;;;1.77;0.82;;;22.90;99.90;;;;;;4955371;28;20030;-91
2021/08/08 12:08:44;;;;;;;2.90;1.02;;;23.10;99.90;;;;;;4954100;29;20568;-90
2021/08/08 12:11:10;;;;;;;1.40;1.00;;;23.40;99.90;;;;;;4955959;28;20478;-90
2021/08/08 12:13:36;;;;;;;2.38;1.20;;;23.60;99.90;;;;;;4954530;29;20031;-89
2021/08/08 12:16:13;;;;;;;1.13;0.85;;;23.70;99.90;;;;;;4951989;29;20081;-89
2021/08/08 12:18:38;;;;;;;1.13;0.80;;;23.80;99.90;;;;;;4954187;29;20035;-88
2021/08/08 12:21:14;;;;;;;2.58;0.75;;;23.70;99.90;;;;;;4952500;28;20114;-90
2021/08/08 12:23:40;;;;;;;2.85;1.10;;;23.60;99.90;;;;;;4939114;29;20098;-89
2021/08/08 12:26:06;;;;;;;4.30;1.40;;;23.60;99.90;;;;;;4956090;29;20840;-89
2021/08/08 12:28:31;;;;;;;1.80;1.10;;;23.50;99.90;;;;;;4954049;28;20035;-89
2021/08/08 12:31:05;;;;;;;3.42;1.00;;;23.40;99.90;;;;;;4952592;29;20494;-89
2021/08/08 12:33:31;;;;;;;2.83;1.15;;;23.50;99.90;;;;;;4951916;28;20174;-88
2021/08/08 12:36:09;;;;;;;2.42;1.00;;;23.60;99.90;;;;;;4951468;29;20110;-89
2021/08/08 12:38:47;;;;;;;3.33;1.15;;;23.80;99.90;;;;;;4952118;29;20423;-90
2021/08/08 12:41:12;;;;;;;1.10;0.90;;;23.90;99.90;;;;;;4952068;29;20078;-88
2021/08/08 12:43:38;;;;;;;1.58;0.90;;;24.00;99.90;;;;;;4968449;28;20031;-90
2021/08/08 12:46:10;;;;;;;1.38;1.05;;;24.10;99.90;;;;;;4953529;29;20016;-91